Time;durP1;ratioP1;P1;durP2;ratioP2;P2;SDS_P1;SDS_P2;PMS_P1;PMS_P2;Temp;Humidity;BMP_temperature;BMP_pressure;BME280_temperature;BME280_humidity;BME280_pressure;Samples;Min_cycle;Max_cycle;Signal;HPM_P1;HPM_P2
2023/07/04 00:00:22;;;;;;;7.72;1.08;;;12.20;99.90;;;;;;4201905;28;20041;-87
2023/07/04 00:02:22;;;;;;;3.72;1.00;;;12.20;99.90;;;;;;4201202;28;20040;-88
2023/07/04 00:04:23;;;;;;;10.73;2.38;;;12.20;99.90;;;;;;4200558;28;20106;-87
2023/07/04 00:06:29;;;;;;;10.25;2.35;;;12.20;99.90;;;;;;4217237;28;20048;-87
2023/07/04 00:08:33;;;;;;;2.88;1.05;;;12.10;99.90;;;;;;4200715;28;20516;-87
2023/07/04 00:10:37;;;;;;;7.13;1.17;;;12.10;99.90;;;;;;4200670;28;20049;-86
2023/07/04 00:12:42;;;;;;;10.95;1.13;;;12.10;99.90;;;;;;4183275;28;20056;-86
2023/07/04 00:14:44;;;;;;;4.95;0.88;;;12.10;99.90;;;;;;4199900;28;20048;-87
2023/07/04 00:16:45;;;;;;;10.43;0.93;;;12.00;99.90;;;;;;4200119;28;20078;-88
2023/07/04 00:18:50;;;;;;;6.18;1.48;;;12.00;99.90;;;;;;4185043;28;20122;-87
2023/07/04 00:20:55;;;;;;;5.57;1.90;;;10.90;99.90;;;;;;4184721;28;20068;-87
2023/07/04 00:23:02;;;;;;;6.22;1.35;;;12.30;99.90;;;;;;4183730;28;20057;-88
2023/07/04 00:25:09;;;;;;;8.32;2.28;;;11.90;99.90;;;;;;4200300;28;20416;-87
2023/07/04 00:27:12;;;;;;;8.60;0.82;;;11.90;99.90;;;;;;4184631;28;20073;-88
2023/07/04 00:29:15;;;;;;;8.43;1.50;;;11.90;99.90;;;;;;4200099;28;20517;-88
2023/07/04 00:31:22;;;;;;;11.77;1.45;;;11.90;99.90;;;;;;4201590;28;20390;-87
2023/07/04 00:33:27;;;;;;;5.45;1.40;;;11.80;99.90;;;;;;4200400;28;20066;-87
2023/07/04 00:35:28;;;;;;;4.88;1.02;;;11.80;99.90;;;;;;4199987;28;20048;-88
2023/07/04 00:37:29;;;;;;;4.72;1.10;;;11.90;99.90;;;;;;4200450;28;20040;-86
2023/07/04 00:39:30;;;;;;;9.15;1.60;;;11.90;99.90;;;;;;4183888;28;20049;-86
2023/07/04 00:41:31;;;;;;;5.60;1.55;;;11.80;99.90;;;;;;4200142;28;20131;-86
2023/07/04 00:46:15;;;;;;;5.88;2.28;;;13.30;99.90;;;;;;4200079;28;20127;-86
2023/07/04 00:48:16;;;;;;;3.33;1.00;;;10.80;99.90;;;;;;4200536;28;20055;-86
2023/07/04 00:50:23;;;;;;;6.20;1.05;;;11.70;99.90;;;;;;4200619;28;20119;-86
2023/07/04 00:52:31;;;;;;;5.93;1.40;;;11.80;99.90;;;;;;4200281;28;20041;-86
2023/07/04 00:54:44;;;;;;;7.97;1.40;;;11.70;99.90;;;;;;4200434;28;20045;-86
2023/07/04 00:56:47;;;;;;;6.33;1.50;;;11.70;99.90;;;;;;4153325;28;1374659;-86
2023/07/04 00:58:48;;;;;;;10.60;1.42;;;11.80;99.90;;;;;;4217019;28;20635;-86
2023/07/04 01:00:49;;;;;;;8.38;1.40;;;11.80;99.90;;;;;;4200828;28;20071;-86
2023/07/04 01:03:04;;;;;;;3.60;1.23;;;11.70;99.90;;;;;;4199023;28;20180;-86
2023/07/04 01:05:05;;;;;;;8.27;1.38;;;11.80;99.90;;;;;;4200020;28;20599;-86
2023/07/04 01:07:20;;;;;;;7.32;0.90;;;11.80;99.90;;;;;;4183671;28;20053;-87
2023/07/04 01:09:23;;;;;;;6.05;1.23;;;11.90;99.90;;;;;;4183184;28;20425;-87
2023/07/04 01:11:33;;;;;;;6.18;1.63;;;11.80;99.90;;;;;;4200927;28;20048;-86
2023/07/04 01:13:43;;;;;;;4.40;0.90;;;11.70;99.90;;;;;;4201233;28;20098;-86
2023/07/04 01:15:44;;;;;;;20.38;3.47;;;11.80;99.90;;;;;;4199992;28;20045;-87
2023/07/04 01:17:44;;;;;;;5.20;1.48;;;11.70;99.90;;;;;;4183849;28;20053;-87
2023/07/04 01:19:46;;;;;;;4.07;1.10;;;11.80;99.90;;;;;;4200247;28;20047;-87
2023/07/04 01:21:55;;;;;;;3.90;0.95;;;11.70;99.90;;;;;;4200867;28;20049;-87
2023/07/04 01:24:14;;;;;;;7.65;1.45;;;11.70;99.90;;;;;;4183854;28;20060;-87
2023/07/04 01:26:49;;;;;;;3.08;1.17;;;11.80;99.90;;;;;;4200318;28;20436;-87
2023/07/04 01:28:53;;;;;;;7.63;1.20;;;11.90;99.90;;;;;;4167451;28;20060;-87
2023/07/04 01:30:53;;;;;;;4.18;1.67;;;11.80;99.90;;;;;;4183846;28;20144;-87
2023/07/04 01:32:56;;;;;;;7.65;1.23;;;11.90;99.90;;;;;;4199639;28;20040;-87
2023/07/04 01:35:00;;;;;;;7.57;1.10;;;11.90;99.90;;;;;;4201193;28;20050;-87
2023/07/04 01:37:02;;;;;;;6.45;1.17;;;11.80;99.90;;;;;;4217610;28;20052;-88
2023/07/04 01:39:04;;;;;;;5.47;2.17;;;11.90;99.90;;;;;;4199832;28;20075;-88
2023/07/04 01:41:04;;;;;;;4.30;1.20;;;11.80;99.90;;;;;;4183124;28;20405;-87
2023/07/04 01:43:05;;;;;;;13.07;1.80;;;11.80;99.90;;;;;;4215366;28;20048;-88
2023/07/04 01:45:08;;;;;;;8.43;1.48;;;11.80;99.90;;;;;;4200489;28;20428;-87
2023/07/04 01:47:18;;;;;;;4.05;1.15;;;11.80;99.90;;;;;;4182987;28;20792;-87
2023/07/04 01:49:19;;;;;;;5.18;1.23;;;11.80;99.90;;;;;;4182472;28;20128;-87
2023/07/04 01:51:32;;;;;;;6.18;1.67;;;11.80;99.90;;;;;;4201372;28;20119;-87
2023/07/04 01:53:34;;;;;;;9.82;1.42;;;11.80;99.90;;;;;;4216689;28;20056;-88
2023/07/04 01:55:35;;;;;;;7.20;1.48;;;11.80;99.90;;;;;;4198870;28;20517;-87
2023/07/04 01:57:36;;;;;;;5.65;1.92;;;11.80;99.90;;;;;;4199699;28;20043;-88
2023/07/04 01:59:37;;;;;;;7.03;1.75;;;11.70;99.90;;;;;;4199117;28;20508;-87
2023/07/04 02:01:38;;;;;;;3.22;1.05;;;11.80;99.90;;;;;;4216236;28;20424;-87
2023/07/04 02:03:40;;;;;;;10.40;1.00;;;11.60;99.90;;;;;;4216597;28;20043;-87
2023/07/04 02:05:47;;;;;;;5.32;1.25;;;11.70;99.90;;;;;;4218797;28;20052;-87
2023/07/04 02:07:48;;;;;;;6.22;2.15;;;11.70;99.90;;;;;;4183599;28;20071;-87
2023/07/04 02:09:51;;;;;;;6.38;1.30;;;11.80;99.90;;;;;;4200142;28;20460;-86
2023/07/04 02:11:52;;;;;;;6.35;1.83;;;11.80;99.90;;;;;;4184393;28;20068;-87
2023/07/04 02:13:55;;;;;;;5.80;1.63;;;11.70;99.90;;;;;;4199623;28;20428;-87
2023/07/04 02:15:56;;;;;;;5.70;1.33;;;11.80;99.90;;;;;;4200059;28;20105;-86
2023/07/04 02:17:58;;;;;;;7.05;1.38;;;11.70;99.90;;;;;;4199994;28;20111;-86
2023/07/04 02:19:59;;;;;;;3.92;1.08;;;11.80;99.90;;;;;;4182918;28;20493;-86
2023/07/04 02:21:59;;;;;;;4.68;1.25;;;11.70;99.90;;;;;;4200138;28;20048;-86
2023/07/04 02:24:01;;;;;;;9.50;2.42;;;11.70;99.90;;;;;;4182729;28;20119;-86
2023/07/04 02:26:02;;;;;;;4.57;1.20;;;11.70;99.90;;;;;;4182198;28;20516;-86
2023/07/04 02:28:03;;;;;;;6.05;1.42;;;11.70;99.90;;;;;;4199933;28;20048;-87
2023/07/04 02:30:05;;;;;;;5.38;1.33;;;11.70;99.90;;;;;;4183265;28;20053;-86
2023/07/04 02:32:11;;;;;;;8.00;1.80;;;11.70;99.90;;;;;;4198541;28;20040;-87
2023/07/04 02:34:12;;;;;;;10.48;1.35;;;11.70;99.90;;;;;;4182998;28;20076;-86
2023/07/04 02:36:13;;;;;;;7.00;1.30;;;11.70;99.90;;;;;;4201712;28;20036;-87
2023/07/04 02:38:16;;;;;;;8.25;2.05;;;11.70;99.90;;;;;;4200549;28;20048;-87
2023/07/04 02:40:17;;;;;;;5.68;0.98;;;11.70;99.90;;;;;;4199534;28;20178;-87
2023/07/04 02:42:18;;;;;;;4.35;1.10;;;11.80;99.90;;;;;;4198232;28;20048;-88
2023/07/04 02:44:19;;;;;;;6.75;1.70;;;11.70;99.90;;;;;;4201353;28;20040;-87
2023/07/04 02:46:22;;;;;;;5.20;1.30;;;11.70;99.90;;;;;;4200243;28;20037;-87
2023/07/04 02:48:25;;;;;;;3.13;1.40;;;11.70;99.90;;;;;;4199654;28;20589;-88
2023/07/04 02:50:26;;;;;;;5.07;1.80;;;11.70;99.90;;;;;;4200386;28;20044;-87
2023/07/04 02:52:27;;;;;;;5.22;1.38;;;11.80;99.90;;;;;;4199007;28;20135;-87
2023/07/04 02:54:27;;;;;;;4.55;1.30;;;11.80;99.90;;;;;;4215807;28;20052;-87
2023/07/04 02:56:28;;;;;;;7.13;1.40;;;11.80;99.90;;;;;;4200250;28;20053;-87
2023/07/04 02:58:29;;;;;;;5.03;1.90;;;11.90;99.90;;;;;;4200386;28;20131;-87
2023/07/04 03:00:31;;;;;;;5.57;1.27;;;11.80;99.90;;;;;;4199531;28;20048;-88
2023/07/04 03:02:33;;;;;;;4.68;1.33;;;11.80;99.90;;;;;;4200854;28;20053;-88
2023/07/04 03:04:36;;;;;;;3.42;1.33;;;12.00;99.90;;;;;;4216412;28;20055;-87
2023/07/04 03:06:37;;;;;;;5.20;1.05;;;11.50;99.90;;;;;;4198891;28;20044;-87
2023/07/04 03:08:38;;;;;;;4.03;1.38;;;11.90;99.90;;;;;;4198253;28;20094;-87
2023/07/04 03:10:39;;;;;;;9.82;1.48;;;11.90;99.90;;;;;;4181958;28;20041;-87
2023/07/04 03:12:40;;;;;;;7.85;1.42;;;12.00;99.90;;;;;;4200586;28;20358;-88
2023/07/04 03:14:41;;;;;;;4.47;1.30;;;12.00;99.90;;;;;;4200175;28;20126;-87
2023/07/04 03:16:41;;;;;;;5.50;1.40;;;12.00;99.90;;;;;;4200776;28;20059;-85
2023/07/04 03:18:42;;;;;;;3.63;1.30;;;12.00;99.90;;;;;;4200313;28;20095;-87
2023/07/04 03:20:43;;;;;;;14.07;2.05;;;12.10;99.90;;;;;;4198651;28;20516;-87
2023/07/04 03:22:46;;;;;;;6.10;1.20;;;12.00;99.90;;;;;;4181333;28;20049;-87
2023/07/04 03:24:48;;;;;;;4.35;1.40;;;12.00;99.90;;;;;;4198328;28;20040;-87
2023/07/04 03:26:49;;;;;;;4.70;1.40;;;11.40;99.90;;;;;;4215808;28;20491;-87
2023/07/04 03:28:50;;;;;;;7.97;1.40;;;12.10;99.90;;;;;;4182935;28;20132;-87
2023/07/04 03:30:51;;;;;;;6.07;1.15;;;11.70;99.90;;;;;;4200436;28;20128;-87
2023/07/04 03:32:52;;;;;;;9.30;1.40;;;12.00;99.90;;;;;;4182032;28;20049;-87
2023/07/04 03:34:52;;;;;;;6.50;1.67;;;12.00;99.90;;;;;;4198414;28;20135;-87
2023/07/04 03:36:57;;;;;;;2.95;1.15;;;12.00;99.90;;;;;;4199836;28;20389;-87
2023/07/04 03:38:57;;;;;;;3.28;1.33;;;12.00;99.90;;;;;;4181996;28;20091;-86
2023/07/04 03:40:59;;;;;;;4.57;1.05;;;12.00;99.90;;;;;;4215554;28;20504;-87
2023/07/04 03:43:09;;;;;;;4.47;1.02;;;12.00;99.90;;;;;;4181778;28;20052;-86
2023/07/04 03:45:11;;;;;;;7.32;1.15;;;12.10;99.90;;;;;;4201416;28;20041;-86
2023/07/04 03:47:12;;;;;;;4.95;2.28;;;12.00;99.90;;;;;;4201932;28;20143;-87
2023/07/04 03:49:13;;;;;;;3.88;1.13;;;12.20;99.90;;;;;;4185364;28;20064;-87
2023/07/04 03:51:14;;;;;;;2.00;0.93;;;12.10;99.90;;;;;;4204693;28;20052;-87
2023/07/04 03:53:16;;;;;;;1.35;1.05;;;12.10;99.90;;;;;;4202196;28;20397;-87
2023/07/04 03:55:18;;;;;;;6.32;1.23;;;12.10;99.90;;;;;;4219023;28;20056;-86
2023/07/04 03:57:19;;;;;;;3.97;0.93;;;12.30;99.90;;;;;;4189390;28;20516;-85
2023/07/04 03:59:21;;;;;;;2.63;0.70;;;12.20;99.90;;;;;;4203729;28;20097;-87
2023/07/04 04:01:22;;;;;;;6.35;0.70;;;12.20;99.90;;;;;;4203967;28;20080;-87
2023/07/04 04:03:24;;;;;;;3.80;0.90;;;12.30;99.90;;;;;;4187064;28;20105;-87
2023/07/04 04:05:27;;;;;;;3.50;0.85;;;12.20;99.90;;;;;;4202028;28;20048;-86
2023/07/04 04:07:27;;;;;;;2.78;1.70;;;12.20;99.90;;;;;;4201879;28;20538;-86
2023/07/04 04:09:30;;;;;;;5.07;1.23;;;12.20;99.90;;;;;;4185233;28;20101;-87
2023/07/04 04:11:39;;;;;;;3.97;1.00;;;12.20;99.90;;;;;;4203116;28;20044;-87
2023/07/04 04:13:42;;;;;;;8.60;1.42;;;12.20;99.90;;;;;;4201868;28;20404;-87
2023/07/04 04:15:43;;;;;;;4.55;1.35;;;12.20;99.90;;;;;;4203184;28;20052;-87
2023/07/04 04:17:45;;;;;;;4.22;0.80;;;12.30;99.90;;;;;;4201973;28;20351;-88
2023/07/04 04:19:46;;;;;;;3.35;1.27;;;12.20;99.90;;;;;;4202818;28;20397;-87
2023/07/04 04:21:47;;;;;;;1.75;0.80;;;12.30;99.90;;;;;;4202381;28;20052;-87
2023/07/04 04:23:48;;;;;;;5.75;0.90;;;12.30;99.90;;;;;;4185630;28;20142;-86
2023/07/04 04:25:51;;;;;;;2.53;0.80;;;12.30;99.90;;;;;;4217765;28;20051;-87
2023/07/04 04:27:52;;;;;;;5.57;0.90;;;12.40;99.90;;;;;;4185109;28;20584;-87
2023/07/04 04:29:53;;;;;;;3.30;1.00;;;12.30;99.90;;;;;;4201503;28;20136;-87
2023/07/04 04:31:55;;;;;;;5.25;1.02;;;12.40;99.90;;;;;;4184725;28;20065;-86
2023/07/04 04:33:57;;;;;;;2.35;0.95;;;12.40;99.90;;;;;;4185241;28;20045;-86
2023/07/04 04:35:58;;;;;;;3.00;0.70;;;12.40;99.90;;;;;;4201625;28;20513;-86
2023/07/04 04:38:01;;;;;;;1.17;0.63;;;12.40;99.90;;;;;;4201446;28;20048;-86
2023/07/04 04:40:04;;;;;;;3.17;0.82;;;12.50;99.90;;;;;;4190197;28;20051;-87
2023/07/04 04:42:06;;;;;;;2.85;0.90;;;12.50;99.90;;;;;;4220433;28;20095;-88
2023/07/04 04:44:08;;;;;;;1.77;1.00;;;12.60;99.90;;;;;;4220230;28;20044;-88
2023/07/04 04:46:11;;;;;;;1.25;0.57;;;12.50;99.90;;;;;;4201606;28;20048;-89
2023/07/04 04:48:19;;;;;;;4.78;1.73;;;12.60;99.90;;;;;;4218203;28;20512;-88
2023/07/04 04:50:25;;;;;;;3.70;0.90;;;12.60;99.90;;;;;;4235023;28;20534;-88
2023/07/04 04:52:29;;;;;;;6.82;1.33;;;12.70;99.90;;;;;;4235117;28;20055;-88
2023/07/04 04:54:30;;;;;;;5.53;0.70;;;12.60;99.90;;;;;;4202810;28;20129;-89
2023/07/04 04:56:33;;;;;;;6.47;1.00;;;12.60;99.90;;;;;;4200598;28;20045;-89
2023/07/04 04:58:36;;;;;;;3.33;1.38;;;12.90;99.90;;;;;;4218952;28;20044;-89
2023/07/04 05:00:38;;;;;;;2.60;1.15;;;12.70;99.90;;;;;;4221887;28;20036;-89
2023/07/04 05:02:39;;;;;;;3.33;1.10;;;12.70;99.90;;;;;;4235660;28;20047;-89
2023/07/04 05:04:40;;;;;;;1.67;0.65;;;12.80;99.90;;;;;;4201200;28;20055;-88
2023/07/04 05:06:49;;;;;;;4.82;1.15;;;12.60;99.90;;;;;;4218431;28;20102;-88
2023/07/04 05:08:52;;;;;;;2.92;0.98;;;12.80;99.90;;;;;;4236829;28;20032;-89
2023/07/04 05:11:07;;;;;;;3.03;0.85;;;11.80;99.90;;;;;;4221413;28;20048;-88
2023/07/04 05:13:08;;;;;;;2.63;0.95;;;12.90;99.90;;;;;;4208722;28;20044;-89
2023/07/04 05:15:19;;;;;;;2.25;0.80;;;12.90;99.90;;;;;;4203634;28;20409;-88
2023/07/04 05:17:29;;;;;;;6.13;1.10;;;13.00;99.90;;;;;;4235215;28;20104;-88
2023/07/04 05:19:32;;;;;;;3.25;1.30;;;13.20;99.90;;;;;;4219932;28;20051;-88
2023/07/04 05:21:35;;;;;;;4.40;1.15;;;13.10;99.90;;;;;;4236686;28;20047;-89
2023/07/04 05:23:39;;;;;;;5.25;1.05;;;13.00;99.90;;;;;;4236796;28;20043;-89
2023/07/04 05:26:01;;;;;;;4.28;1.00;;;13.00;99.90;;;;;;4204348;28;20053;-89
2023/07/04 05:28:04;;;;;;;4.38;0.98;;;13.20;99.90;;;;;;4242128;28;20043;-88
2023/07/04 05:30:07;;;;;;;6.70;1.42;;;13.10;99.90;;;;;;4210891;28;20081;-86
2023/07/04 05:32:10;;;;;;;6.10;1.35;;;13.20;99.90;;;;;;4216229;28;20036;-86
2023/07/04 05:34:19;;;;;;;4.60;1.30;;;13.20;99.90;;;;;;4200713;28;20048;-86
2023/07/04 05:36:24;;;;;;;5.15;1.10;;;13.10;99.90;;;;;;4218823;28;20050;-86
2023/07/04 05:38:25;;;;;;;6.28;1.38;;;13.30;99.90;;;;;;4225988;28;20055;-87
2023/07/04 05:40:28;;;;;;;5.32;1.85;;;13.20;99.90;;;;;;4199884;28;20037;-86
2023/07/04 05:42:30;;;;;;;3.28;1.35;;;13.30;99.90;;;;;;4233863;28;20170;-86
2023/07/04 05:44:32;;;;;;;6.68;1.67;;;13.40;99.90;;;;;;4235570;28;20048;-87
2023/07/04 05:46:38;;;;;;;3.08;1.40;;;13.60;99.90;;;;;;4235249;28;20082;-86
2023/07/04 05:48:40;;;;;;;5.53;1.45;;;13.70;99.90;;;;;;4234936;28;20031;-86
2023/07/04 05:50:53;;;;;;;8.02;2.22;;;13.70;99.90;;;;;;4239100;28;20047;-86
2023/07/04 05:52:54;;;;;;;4.03;1.33;;;15.00;99.90;;;;;;4245138;28;20047;-86
2023/07/04 05:54:55;;;;;;;5.38;1.70;;;13.80;99.90;;;;;;4225544;28;20067;-86
2023/07/04 05:56:57;;;;;;;6.57;1.63;;;13.90;99.90;;;;;;4192568;28;20098;-86
2023/07/04 05:59:01;;;;;;;6.50;1.70;;;13.90;99.90;;;;;;4211219;28;20435;-86
2023/07/04 06:01:08;;;;;;;4.10;1.50;;;14.00;99.90;;;;;;4211852;28;20051;-86
2023/07/04 06:03:08;;;;;;;4.88;1.55;;;13.90;99.90;;;;;;4225106;28;20107;-87
2023/07/04 06:05:09;;;;;;;5.38;1.40;;;14.00;99.90;;;;;;4205166;28;20131;-86
2023/07/04 06:07:10;;;;;;;5.25;1.23;;;14.10;99.90;;;;;;4201607;28;20045;-86
2023/07/04 06:09:15;;;;;;;4.18;1.08;;;14.10;99.90;;;;;;4200769;28;20500;-85
2023/07/04 06:11:20;;;;;;;3.40;1.40;;;14.30;99.90;;;;;;4183659;28;20064;-85
2023/07/04 06:13:25;;;;;;;3.42;0.98;;;14.40;99.90;;;;;;4200528;28;20118;-87
2023/07/04 06:15:26;;;;;;;5.38;1.33;;;14.50;99.90;;;;;;4201648;28;20473;-86
2023/07/04 06:17:28;;;;;;;3.85;1.20;;;14.50;99.90;;;;;;4201278;28;20139;-87
2023/07/04 06:19:29;;;;;;;5.38;1.00;;;14.50;99.90;;;;;;4201506;28;20044;-87
2023/07/04 06:21:31;;;;;;;5.32;1.80;;;14.70;99.90;;;;;;4201521;28;20041;-87
2023/07/04 06:23:32;;;;;;;8.63;1.00;;;14.80;99.90;;;;;;4202750;28;20045;-86
2023/07/04 06:25:33;;;;;;;5.20;1.00;;;14.70;99.90;;;;;;4200215;28;20505;-86
2023/07/04 06:27:34;;;;;;;3.80;1.10;;;14.70;99.90;;;;;;4214866;28;20047;-86
2023/07/04 06:29:34;;;;;;;3.60;1.10;;;14.80;99.90;;;;;;4218138;28;20516;-86
2023/07/04 06:31:41;;;;;;;5.55;1.00;;;14.90;99.90;;;;;;4218939;28;20031;-86
2023/07/04 06:33:48;;;;;;;6.57;1.08;;;15.00;99.90;;;;;;4201072;28;20040;-87
2023/07/04 06:35:49;;;;;;;4.53;1.10;;;14.90;99.90;;;;;;4200688;28;20059;-87
2023/07/04 06:37:50;;;;;;;6.20;0.93;;;14.90;99.90;;;;;;4219516;28;20044;-86
2023/07/04 06:39:53;;;;;;;3.45;0.90;;;15.10;99.90;;;;;;4218067;28;20404;-87
2023/07/04 06:41:54;;;;;;;2.30;0.95;;;15.20;99.90;;;;;;4220104;28;20477;-86
2023/07/04 06:43:58;;;;;;;3.25;0.90;;;15.40;99.90;;;;;;4235279;28;20054;-87
2023/07/04 06:46:01;;;;;;;2.63;1.00;;;15.40;99.90;;;;;;4235396;28;20411;-87
2023/07/04 06:48:02;;;;;;;9.25;1.40;;;15.40;99.90;;;;;;4218357;28;20051;-86
2023/07/04 06:50:03;;;;;;;7.35;0.80;;;15.40;99.90;;;;;;4217165;28;20051;-86
2023/07/04 06:52:11;;;;;;;6.75;0.90;;;15.40;99.90;;;;;;4216689;28;20399;-87
2023/07/04 06:54:12;;;;;;;4.70;0.98;;;15.50;99.90;;;;;;4200253;28;20054;-86
2023/07/04 06:56:18;;;;;;;4.93;1.13;;;15.60;99.90;;;;;;4233194;28;20146;-86
2023/07/04 06:58:26;;;;;;;2.55;0.75;;;15.60;99.90;;;;;;4234396;28;20497;-86
2023/07/04 07:00:26;;;;;;;4.15;1.38;;;15.70;99.90;;;;;;4219088;28;20036;-85
2023/07/04 07:02:28;;;;;;;3.00;0.63;;;15.60;99.90;;;;;;4219385;28;20059;-86
2023/07/04 07:04:29;;;;;;;1.95;0.73;;;15.60;99.90;;;;;;4200953;28;20107;-85
2023/07/04 07:06:31;;;;;;;5.22;0.80;;;15.70;99.90;;;;;;4217271;28;20028;-85
2023/07/04 07:08:32;;;;;;;2.30;0.77;;;15.80;99.90;;;;;;4216545;28;20064;-85
2023/07/04 07:10:37;;;;;;;8.70;1.35;;;15.90;99.90;;;;;;4216819;28;20119;-86
2023/07/04 07:12:38;;;;;;;2.80;1.10;;;16.00;99.90;;;;;;4217765;28;20388;-86
2023/07/04 07:14:39;;;;;;;5.82;1.20;;;16.10;99.90;;;;;;4205004;28;20110;-87
2023/07/04 07:16:40;;;;;;;4.72;1.13;;;16.30;99.90;;;;;;4217226;28;20101;-86
2023/07/04 07:18:46;;;;;;;2.42;0.63;;;16.40;99.90;;;;;;4202118;28;20037;-87
2023/07/04 07:20:47;;;;;;;5.45;0.70;;;16.70;99.90;;;;;;4202891;28;20091;-86
2023/07/04 07:22:54;;;;;;;4.70;0.90;;;15.80;99.90;;;;;;4203386;28;20075;-86
2023/07/04 07:24:55;;;;;;;2.53;0.88;;;16.80;99.90;;;;;;4220349;28;20553;-87
2023/07/04 07:27:00;;;;;;;2.20;0.88;;;16.80;99.90;;;;;;4220118;28;20495;-87
2023/07/04 07:29:00;;;;;;;3.20;0.85;;;16.90;99.90;;;;;;4237608;27;20527;-87
2023/07/04 07:31:03;;;;;;;5.18;0.88;;;17.00;99.90;;;;;;4221752;28;20079;-87
2023/07/04 07:33:04;;;;;;;4.32;0.77;;;17.00;99.90;;;;;;4226123;28;20476;-86
2023/07/04 07:35:05;;;;;;;2.35;0.80;;;17.10;99.90;;;;;;4225907;28;20032;-86
2023/07/04 07:37:08;;;;;;;2.75;0.80;;;17.10;99.90;;;;;;4228597;28;20036;-85
2023/07/04 07:39:16;;;;;;;1.70;0.70;;;17.30;99.90;;;;;;4234580;28;20474;-86
2023/07/04 07:41:19;;;;;;;6.57;1.02;;;17.20;99.90;;;;;;4225641;28;20504;-84
2023/07/04 07:43:23;;;;;;;3.47;0.70;;;17.10;99.90;;;;;;4218772;28;20411;-85
2023/07/04 07:45:24;;;;;;;6.20;0.82;;;16.70;99.90;;;;;;4200731;28;20598;-86
2023/07/04 07:47:25;;;;;;;1.70;0.60;;;17.00;99.90;;;;;;4235728;28;20141;-84
2023/07/04 07:49:26;;;;;;;1.42;0.50;;;16.90;99.90;;;;;;4218695;28;20043;-83
2023/07/04 07:51:28;;;;;;;5.07;0.80;;;16.90;99.90;;;;;;4219293;28;20044;-83
2023/07/04 07:53:29;;;;;;;2.20;0.80;;;16.90;99.90;;;;;;4228683;28;20055;-84
2023/07/04 07:55:30;;;;;;;4.65;0.75;;;16.90;99.90;;;;;;4233949;28;20052;-84
2023/07/04 07:57:37;;;;;;;4.50;0.95;;;16.90;99.90;;;;;;4234295;28;20051;-82
2023/07/04 07:59:37;;;;;;;1.80;0.60;;;16.90;99.90;;;;;;4235376;28;20451;-84
2023/07/04 08:01:39;;;;;;;4.80;0.77;;;16.80;99.90;;;;;;4235477;28;20054;-84
2023/07/04 08:03:41;;;;;;;2.28;0.70;;;16.80;99.90;;;;;;4236276;28;20051;-84
2023/07/04 08:05:42;;;;;;;4.57;0.70;;;16.80;99.90;;;;;;4235951;28;20047;-85
2023/07/04 08:07:43;;;;;;;4.97;0.70;;;16.90;99.90;;;;;;4235203;28;20105;-84
2023/07/04 08:09:44;;;;;;;5.38;1.13;;;16.90;99.90;;;;;;4230582;28;20047;-84
2023/07/04 08:11:46;;;;;;;2.63;0.70;;;17.00;99.90;;;;;;4216319;28;20113;-83
2023/07/04 08:13:47;;;;;;;4.55;0.82;;;15.80;99.90;;;;;;4217785;28;20476;-83
2023/07/04 08:15:54;;;;;;;31.38;1.60;;;17.00;99.90;;;;;;4221133;28;20141;-84
2023/07/04 08:17:55;;;;;;;6.53;0.90;;;16.40;99.90;;;;;;4236739;28;20115;-84
2023/07/04 08:19:56;;;;;;;6.80;1.00;;;17.10;99.90;;;;;;4237737;28;20507;-85
2023/07/04 08:21:58;;;;;;;2.45;0.70;;;16.00;99.90;;;;;;4222997;28;20050;-85
2023/07/04 08:23:58;;;;;;;3.38;0.68;;;17.30;99.90;;;;;;4221391;28;20101;-84
2023/07/04 08:25:59;;;;;;;9.15;2.35;;;17.40;99.90;;;;;;4222984;28;20140;-84
2023/07/04 08:28:00;;;;;;;4.82;0.77;;;17.40;99.90;;;;;;4219352;28;20454;-84
2023/07/04 08:30:01;;;;;;;8.52;1.23;;;17.50;99.90;;;;;;4200724;28;20131;-84
2023/07/04 08:32:02;;;;;;;4.50;0.65;;;17.60;99.90;;;;;;4218401;28;20404;-85
2023/07/04 08:34:09;;;;;;;4.88;0.75;;;17.80;99.90;;;;;;4234403;28;20055;-85
2023/07/04 08:36:10;;;;;;;1.92;0.60;;;17.90;99.90;;;;;;4217729;28;20506;-84
2023/07/04 08:38:10;;;;;;;8.32;1.48;;;18.00;99.90;;;;;;4219235;28;20067;-84
2023/07/04 08:40:13;;;;;;;3.88;1.10;;;18.00;99.90;;;;;;4216560;28;20134;-85
2023/07/04 08:42:17;;;;;;;8.20;0.75;;;18.00;99.90;;;;;;4217402;28;20040;-84
2023/07/04 08:44:42;;;;;;;7.95;0.68;;;18.00;99.90;;;;;;4218594;28;20040;-85
2023/07/04 08:46:46;;;;;;;5.75;0.98;;;17.90;99.90;;;;;;4217845;28;20059;-85
2023/07/04 08:48:48;;;;;;;4.50;0.85;;;17.80;99.90;;;;;;4218019;28;20039;-85
2023/07/04 08:50:49;;;;;;;4.40;1.33;;;17.80;99.90;;;;;;4217509;28;20052;-85
2023/07/04 08:52:56;;;;;;;5.65;1.25;;;17.60;99.90;;;;;;4218659;28;20381;-85
2023/07/04 08:54:57;;;;;;;7.43;0.60;;;17.80;99.90;;;;;;4218677;28;20377;-85
2023/07/04 08:57:03;;;;;;;7.55;0.70;;;17.70;99.90;;;;;;4218705;28;20050;-85
2023/07/04 08:59:10;;;;;;;8.35;1.00;;;17.90;99.90;;;;;;4218430;28;20096;-85
2023/07/04 09:01:21;;;;;;;5.07;0.90;;;18.00;99.90;;;;;;4218899;28;20531;-84
2023/07/04 09:03:25;;;;;;;3.15;0.77;;;18.00;99.90;;;;;;4218961;28;20100;-86
2023/07/04 09:05:48;;;;;;;4.35;0.60;;;18.30;99.90;;;;;;4217632;28;20048;-85
2023/07/04 09:08:12;;;;;;;11.10;1.38;;;18.40;99.90;;;;;;4218502;28;20492;-85
2023/07/04 09:10:36;;;;;;;5.50;0.98;;;18.60;99.90;;;;;;4217163;28;20519;-85
2023/07/04 09:12:39;;;;;;;3.33;0.88;;;19.10;99.90;;;;;;4218890;28;20105;-84
2023/07/04 09:14:56;;;;;;;4.20;0.80;;;19.10;99.90;;;;;;4218396;28;20048;-85
2023/07/04 09:17:00;;;;;;;10.20;1.30;;;19.00;99.90;;;;;;4217130;28;20500;-84
2023/07/04 09:19:05;;;;;;;4.30;0.82;;;18.70;99.90;;;;;;4218566;28;20044;-85
2023/07/04 09:21:08;;;;;;;5.68;1.15;;;18.60;99.90;;;;;;4217204;28;20075;-84
2023/07/04 09:23:14;;;;;;;5.07;0.95;;;18.30;99.90;;;;;;4232639;28;20584;-84
2023/07/04 09:25:15;;;;;;;5.05;0.90;;;18.00;99.90;;;;;;4217794;28;20079;-84
2023/07/04 09:27:16;;;;;;;7.72;2.08;;;17.70;99.90;;;;;;4218045;28;20062;-83
2023/07/04 09:29:21;;;;;;;3.53;1.10;;;17.40;99.90;;;;;;4217144;28;20503;-85
2023/07/04 09:31:29;;;;;;;6.10;1.30;;;17.10;99.90;;;;;;4216561;28;20056;-84
2023/07/04 09:33:35;;;;;;;5.53;1.25;;;17.20;99.90;;;;;;4233411;28;20504;-84
2023/07/04 09:35:36;;;;;;;11.43;1.88;;;17.20;99.90;;;;;;4216647;28;20115;-84
2023/07/04 09:37:57;;;;;;;6.63;1.85;;;17.10;99.90;;;;;;4234646;28;20428;-84
2023/07/04 09:40:04;;;;;;;6.35;1.17;;;17.00;99.90;;;;;;4234311;28;20058;-84
2023/07/04 09:42:07;;;;;;;5.78;1.42;;;17.00;99.90;;;;;;4215020;28;20040;-85
2023/07/04 09:44:14;;;;;;;7.70;1.50;;;17.20;99.90;;;;;;4218914;28;20028;-85
2023/07/04 09:46:21;;;;;;;14.43;1.20;;;17.30;99.90;;;;;;4218278;28;20044;-85
2023/07/04 09:48:25;;;;;;;6.72;1.35;;;17.60;99.90;;;;;;4218020;28;20079;-85
2023/07/04 09:50:33;;;;;;;6.13;1.05;;;17.80;99.90;;;;;;4236035;28;20047;-85
2023/07/04 09:52:33;;;;;;;8.48;1.75;;;17.90;99.90;;;;;;4216262;28;20543;-84
2023/07/04 09:54:36;;;;;;;5.38;1.00;;;18.00;99.90;;;;;;4217319;28;20051;-85
2023/07/04 09:56:38;;;;;;;7.82;1.00;;;18.00;99.90;;;;;;4218091;28;20052;-87
2023/07/04 09:58:39;;;;;;;7.35;2.03;;;18.20;99.90;;;;;;4218605;28;20484;-84
2023/07/04 10:00:44;;;;;;;8.30;1.80;;;18.10;99.90;;;;;;4219310;28;20373;-84
2023/07/04 10:02:52;;;;;;;5.43;0.93;;;18.00;99.90;;;;;;4217766;28;20048;-84
2023/07/04 10:04:53;;;;;;;6.75;1.13;;;17.80;99.90;;;;;;4201349;28;20083;-84
2023/07/04 10:07:03;;;;;;;7.18;1.20;;;18.00;99.90;;;;;;4217654;28;20044;-85
2023/07/04 10:09:15;;;;;;;4.55;0.90;;;17.30;99.90;;;;;;4217632;28;20043;-84
2023/07/04 10:11:32;;;;;;;5.32;0.90;;;18.70;99.90;;;;;;4217824;28;20119;-85
2023/07/04 10:13:37;;;;;;;7.22;1.38;;;19.00;99.90;;;;;;4218556;28;20048;-85
2023/07/04 10:15:42;;;;;;;6.68;1.08;;;19.20;99.90;;;;;;4215711;28;20044;-85
2023/07/04 10:17:43;;;;;;;4.55;1.00;;;19.10;99.90;;;;;;4217466;28;20040;-85
2023/07/04 10:19:47;;;;;;;4.65;0.80;;;18.90;99.90;;;;;;4217183;28;20535;-85
2023/07/04 10:21:53;;;;;;;5.72;0.95;;;18.80;99.90;;;;;;4218646;28;20046;-84
2023/07/04 10:23:54;;;;;;;6.28;1.00;;;18.80;99.90;;;;;;4217520;28;20048;-85
2023/07/04 10:25:59;;;;;;;2.97;0.70;;;19.10;99.90;;;;;;4215271;28;20052;-84
2023/07/04 10:28:13;;;;;;;4.78;0.90;;;19.30;99.90;;;;;;4217995;28;20108;-85
2023/07/04 10:30:22;;;;;;;5.35;0.98;;;19.40;99.90;;;;;;4215911;28;20056;-84
2023/07/04 10:32:25;;;;;;;4.00;0.80;;;19.60;99.90;;;;;;4216889;28;20047;-84
2023/07/04 10:34:27;;;;;;;8.60;0.82;;;19.90;99.90;;;;;;4216819;28;20036;-85
2023/07/04 10:36:34;;;;;;;5.30;0.98;;;20.30;99.90;;;;;;4215944;28;20440;-85
2023/07/04 10:38:42;;;;;;;4.20;1.20;;;20.60;99.90;;;;;;4220673;28;20044;-84
2023/07/04 10:40:44;;;;;;;8.32;1.35;;;20.70;99.90;;;;;;4223113;28;20040;-85
2023/07/04 10:43:13;;;;;;;7.88;1.00;;;20.50;99.90;;;;;;4202428;28;20060;-84
2023/07/04 10:45:19;;;;;;;3.70;1.50;;;20.30;99.90;;;;;;4215604;28;20538;-85